sensor_id;sensor_type;location;lat;lon;timestamp;temperature;humidity
22173;DHT22;11252;50.596;17.648;2023-05-23T13:58:51;22.30;89.30
22173;DHT22;11252;50.596;17.648;2023-05-23T14:01:19;22.40;88.50
22173;DHT22;11252;50.596;17.648;2023-05-23T14:03:46;22.40;88.20
22173;DHT22;11252;50.596;17.648;2023-05-23T14:06:13;22.40;89.80
22173;DHT22;11252;50.596;17.648;2023-05-23T14:08:41;22.40;89.40
22173;DHT22;11252;50.596;17.648;2023-05-23T14:11:08;22.50;90.00
22173;DHT22;11252;50.596;17.648;2023-05-23T14:13:36;22.50;89.70
22173;DHT22;11252;50.596;17.648;2023-05-23T14:16:07;22.50;88.70
22173;DHT22;11252;50.596;17.648;2023-05-23T14:18:34;22.40;89.20
22173;DHT22;11252;50.596;17.648;2023-05-23T14:21:01;22.30;89.60
22173;DHT22;11252;50.596;17.648;2023-05-23T14:23:29;22.20;89.40
22173;DHT22;11252;50.596;17.648;2023-05-23T14:25:57;22.00;89.90
22173;DHT22;11252;50.596;17.648;2023-05-23T14:28:24;21.80;90.50
22173;DHT22;11252;50.596;17.648;2023-05-23T14:30:52;21.70;91.10
22173;DHT22;11252;50.596;17.648;2023-05-23T14:33:21;21.60;91.40
22173;DHT22;11252;50.596;17.648;2023-05-23T14:35:49;21.50;91.30
22173;DHT22;11252;50.596;17.648;2023-05-23T14:38:17;21.60;91.60
22173;DHT22;11252;50.596;17.648;2023-05-23T14:40:45;21.60;92.20
22173;DHT22;11252;50.596;17.648;2023-05-23T14:43:14;21.60;92.20
22173;DHT22;11252;50.596;17.648;2023-05-23T14:45:42;21.60;92.20
22173;DHT22;11252;50.596;17.648;2023-05-23T14:48:09;21.70;92.20
22173;DHT22;11252;50.596;17.648;2023-05-23T14:50:37;21.80;91.90
22173;DHT22;11252;50.596;17.648;2023-05-23T14:53:05;21.80;91.50
22173;DHT22;11252;50.596;17.648;2023-05-23T14:55:32;21.80;92.20
22173;DHT22;11252;50.596;17.648;2023-05-23T14:58:00;21.90;92.20
22173;DHT22;11252;50.596;17.648;2023-05-23T15:00:29;21.90;92.20
22173;DHT22;11252;50.596;17.648;2023-05-23T15:02:57;21.90;92.00
22173;DHT22;11252;50.596;17.648;2023-05-23T15:05:25;21.90;92.20
22173;DHT22;11252;50.596;17.648;2023-05-23T15:07:52;21.80;92.20
22173;DHT22;11252;50.596;17.648;2023-05-23T15:10:22;21.70;92.20
22173;DHT22;11252;50.596;17.648;2023-05-23T15:12:49;21.60;92.20
22173;DHT22;11252;50.596;17.648;2023-05-23T15:15:18;21.60;92.20
22173;DHT22;11252;50.596;17.648;2023-05-23T15:17:49;21.60;92.20
22173;DHT22;11252;50.596;17.648;2023-05-23T15:20:17;21.70;92.20
22173;DHT22;11252;50.596;17.648;2023-05-23T15:22:44;21.70;92.20
22173;DHT22;11252;50.596;17.648;2023-05-23T15:25:12;21.70;92.20
22173;DHT22;11252;50.596;17.648;2023-05-23T15:27:39;21.80;92.20
22173;DHT22;11252;50.596;17.648;2023-05-23T15:30:07;21.70;92.20
22173;DHT22;11252;50.596;17.648;2023-05-23T15:32:35;21.70;92.20
22173;DHT22;11252;50.596;17.648;2023-05-23T15:35:04;21.60;92.20
22173;DHT22;11252;50.596;17.648;2023-05-23T15:37:34;21.60;92.20
22173;DHT22;11252;50.596;17.648;2023-05-23T15:40:02;21.50;92.20
22173;DHT22;11252;50.596;17.648;2023-05-23T15:42:31;21.50;92.20
22173;DHT22;11252;50.596;17.648;2023-05-23T15:44:58;21.50;92.20
22173;DHT22;11252;50.596;17.648;2023-05-23T15:47:25;21.50;92.20
22173;DHT22;11252;50.596;17.648;2023-05-23T15:49:53;21.40;92.20
22173;DHT22;11252;50.596;17.648;2023-05-23T15:52:21;21.40;92.20
22173;DHT22;11252;50.596;17.648;2023-05-23T15:54:48;21.40;92.20
22173;DHT22;11252;50.596;17.648;2023-05-23T15:57:16;21.30;92.20
22173;DHT22;11252;50.596;17.648;2023-05-23T15:59:43;21.30;92.20
22173;DHT22;11252;50.596;17.648;2023-05-23T16:02:10;21.30;92.20
22173;DHT22;11252;50.596;17.648;2023-05-23T16:04:38;21.20;92.20
22173;DHT22;11252;50.596;17.648;2023-05-23T16:07:05;21.10;92.20
22173;DHT22;11252;50.596;17.648;2023-05-23T16:09:33;21.10;92.20
22173;DHT22;11252;50.596;17.648;2023-05-23T16:12:00;21.00;92.20
22173;DHT22;11252;50.596;17.648;2023-05-23T16:14:28;20.90;92.20
22173;DHT22;11252;50.596;17.648;2023-05-23T16:16:55;20.80;92.20
22173;DHT22;11252;50.596;17.648;2023-05-23T16:19:23;20.80;92.20
22173;DHT22;11252;50.596;17.648;2023-05-23T16:21:50;20.70;92.20
22173;DHT22;11252;50.596;17.648;2023-05-23T16:24:17;20.70;92.20
22173;DHT22;11252;50.596;17.648;2023-05-23T16:26:45;20.60;92.20
22173;DHT22;11252;50.596;17.648;2023-05-23T16:29:12;20.60;92.20
22173;DHT22;11252;50.596;17.648;2023-05-23T16:31:39;20.50;92.20
22173;DHT22;11252;50.596;17.648;2023-05-23T16:34:07;20.40;92.20
22173;DHT22;11252;50.596;17.648;2023-05-23T16:36:34;20.50;92.20
22173;DHT22;11252;50.596;17.648;2023-05-23T16:39:03;20.50;92.20
22173;DHT22;11252;50.596;17.648;2023-05-23T16:41:31;20.50;92.20
22173;DHT22;11252;50.596;17.648;2023-05-23T16:43:58;20.50;92.20
22173;DHT22;11252;50.596;17.648;2023-05-23T16:46:25;20.50;92.20
22173;DHT22;11252;50.596;17.648;2023-05-23T16:48:53;20.40;92.20
22173;DHT22;11252;50.596;17.648;2023-05-23T16:51:22;20.40;92.20
22173;DHT22;11252;50.596;17.648;2023-05-23T16:53:49;20.40;92.20
22173;DHT22;11252;50.596;17.648;2023-05-23T16:56:16;20.40;92.20
22173;DHT22;11252;50.596;17.648;2023-05-23T16:58:43;20.40;92.20
22173;DHT22;11252;50.596;17.648;2023-05-23T17:01:10;20.40;92.20
22173;DHT22;11252;50.596;17.648;2023-05-23T17:03:38;20.30;92.20
22173;DHT22;11252;50.596;17.648;2023-05-23T17:06:07;20.30;92.20
22173;DHT22;11252;50.596;17.648;2023-05-23T17:08:34;20.30;92.20
22173;DHT22;11252;50.596;17.648;2023-05-23T17:11:02;20.30;92.20
22173;DHT22;11252;50.596;17.648;2023-05-23T17:13:32;20.20;92.20
22173;DHT22;11252;50.596;17.648;2023-05-23T17:16:00;20.20;92.20
22173;DHT22;11252;50.596;17.648;2023-05-23T17:18:28;20.20;92.20
22173;DHT22;11252;50.596;17.648;2023-05-23T17:20:55;20.20;92.20
22173;DHT22;11252;50.596;17.648;2023-05-23T17:23:22;20.20;92.20
22173;DHT22;11252;50.596;17.648;2023-05-23T17:25:50;20.10;92.20
22173;DHT22;11252;50.596;17.648;2023-05-23T17:28:17;20.10;92.20
22173;DHT22;11252;50.596;17.648;2023-05-23T17:30:45;20.10;92.20
22173;DHT22;11252;50.596;17.648;2023-05-23T17:33:12;20.00;92.20
22173;DHT22;11252;50.596;17.648;2023-05-23T17:35:39;20.00;92.20
22173;DHT22;11252;50.596;17.648;2023-05-23T17:38:07;20.00;92.20
22173;DHT22;11252;50.596;17.648;2023-05-23T17:40:35;19.90;92.20
22173;DHT22;11252;50.596;17.648;2023-05-23T17:43:02;19.90;92.20
22173;DHT22;11252;50.596;17.648;2023-05-23T17:45:29;19.90;92.20
22173;DHT22;11252;50.596;17.648;2023-05-23T17:47:57;19.90;92.20
22173;DHT22;11252;50.596;17.648;2023-05-23T17:50:30;19.80;92.20
22173;DHT22;11252;50.596;17.648;2023-05-23T17:52:57;19.80;92.20
22173;DHT22;11252;50.596;17.648;2023-05-23T17:55:29;19.70;92.20
22173;DHT22;11252;50.596;17.648;2023-05-23T17:57:57;19.60;92.20
22173;DHT22;11252;50.596;17.648;2023-05-23T18:00:24;19.60;92.20
22173;DHT22;11252;50.596;17.648;2023-05-23T18:02:51;19.60;92.20
22173;DHT22;11252;50.596;17.648;2023-05-23T18:05:19;19.60;92.20
22173;DHT22;11252;50.596;17.648;2023-05-23T18:07:47;19.50;92.20
22173;DHT22;11252;50.596;17.648;2023-05-23T18:10:14;19.40;92.20
22173;DHT22;11252;50.596;17.648;2023-05-23T18:12:42;19.40;92.20
22173;DHT22;11252;50.596;17.648;2023-05-23T18:15:10;19.30;92.20
22173;DHT22;11252;50.596;17.648;2023-05-23T18:17:38;19.30;92.20
22173;DHT22;11252;50.596;17.648;2023-05-23T18:20:06;19.30;92.20
22173;DHT22;11252;50.596;17.648;2023-05-23T18:22:33;19.30;92.20
22173;DHT22;11252;50.596;17.648;2023-05-23T18:25:01;19.20;92.20
22173;DHT22;11252;50.596;17.648;2023-05-23T18:27:29;19.20;92.20
22173;DHT22;11252;50.596;17.648;2023-05-23T18:30:00;19.10;92.20
22173;DHT22;11252;50.596;17.648;2023-05-23T18:32:28;19.10;92.20
22173;DHT22;11252;50.596;17.648;2023-05-23T18:34:56;19.00;92.20
22173;DHT22;11252;50.596;17.648;2023-05-23T18:37:24;19.00;92.20
22173;DHT22;11252;50.596;17.648;2023-05-23T18:39:52;19.00;92.20
22173;DHT22;11252;50.596;17.648;2023-05-23T18:42:23;18.90;92.20
22173;DHT22;11252;50.596;17.648;2023-05-23T18:44:52;18.80;92.20
22173;DHT22;11252;50.596;17.648;2023-05-23T18:47:21;18.80;92.20
22173;DHT22;11252;50.596;17.648;2023-05-23T18:49:50;18.70;92.20
22173;DHT22;11252;50.596;17.648;2023-05-23T18:52:19;18.60;92.20
22173;DHT22;11252;50.596;17.648;2023-05-23T18:54:49;18.60;92.20
22173;DHT22;11252;50.596;17.648;2023-05-23T18:57:20;18.60;92.20
22173;DHT22;11252;50.596;17.648;2023-05-23T18:59:49;18.50;92.20
22173;DHT22;11252;50.596;17.648;2023-05-23T19:02:17;18.50;92.20
22173;DHT22;11252;50.596;17.648;2023-05-23T19:04:45;18.40;92.20
22173;DHT22;11252;50.596;17.648;2023-05-23T19:07:14;18.30;92.20
22173;DHT22;11252;50.596;17.648;2023-05-23T19:09:42;18.30;92.20
22173;DHT22;11252;50.596;17.648;2023-05-23T19:12:10;18.30;92.20
22173;DHT22;11252;50.596;17.648;2023-05-23T19:14:37;18.20;92.20
22173;DHT22;11252;50.596;17.648;2023-05-23T19:17:04;18.10;92.20
22173;DHT22;11252;50.596;17.648;2023-05-23T19:19:32;18.10;92.20
22173;DHT22;11252;50.596;17.648;2023-05-23T19:22:03;18.10;92.20
22173;DHT22;11252;50.596;17.648;2023-05-23T19:24:31;18.10;92.20
22173;DHT22;11252;50.596;17.648;2023-05-23T19:26:59;18.10;92.20
22173;DHT22;11252;50.596;17.648;2023-05-23T19:29:28;18.10;92.20
22173;DHT22;11252;50.596;17.648;2023-05-23T19:31:56;18.00;92.20
22173;DHT22;11252;50.596;17.648;2023-05-23T19:34:23;18.00;92.20
22173;DHT22;11252;50.596;17.648;2023-05-23T19:36:51;18.00;92.20
22173;DHT22;11252;50.596;17.648;2023-05-23T19:39:19;18.00;92.20
22173;DHT22;11252;50.596;17.648;2023-05-23T19:41:47;18.00;92.20
22173;DHT22;11252;50.596;17.648;2023-05-23T19:44:15;18.00;92.20
22173;DHT22;11252;50.596;17.648;2023-05-23T19:46:42;18.00;92.20
22173;DHT22;11252;50.596;17.648;2023-05-23T19:49:13;18.00;92.20
22173;DHT22;11252;50.596;17.648;2023-05-23T19:51:43;18.10;92.20
22173;DHT22;11252;50.596;17.648;2023-05-23T19:54:10;18.00;92.20
22173;DHT22;11252;50.596;17.648;2023-05-23T19:56:39;18.00;92.20
22173;DHT22;11252;50.596;17.648;2023-05-23T19:59:07;18.00;92.20
22173;DHT22;11252;50.596;17.648;2023-05-23T20:01:34;17.90;92.20
22173;DHT22;11252;50.596;17.648;2023-05-23T20:04:02;17.90;92.20
22173;DHT22;11252;50.596;17.648;2023-05-23T20:06:29;17.80;92.20
22173;DHT22;11252;50.596;17.648;2023-05-23T20:08:57;17.70;92.20
22173;DHT22;11252;50.596;17.648;2023-05-23T20:11:24;17.60;92.20
22173;DHT22;11252;50.596;17.648;2023-05-23T20:13:54;17.60;92.20
22173;DHT22;11252;50.596;17.648;2023-05-23T20:16:22;17.50;92.20
22173;DHT22;11252;50.596;17.648;2023-05-23T20:18:49;17.50;92.20
22173;DHT22;11252;50.596;17.648;2023-05-23T20:21:16;17.40;92.20
22173;DHT22;11252;50.596;17.648;2023-05-23T20:23:44;17.30;92.20
22173;DHT22;11252;50.596;17.648;2023-05-23T20:26:12;17.30;92.20
22173;DHT22;11252;50.596;17.648;2023-05-23T20:28:39;17.20;92.20
22173;DHT22;11252;50.596;17.648;2023-05-23T20:31:07;17.20;92.20
22173;DHT22;11252;50.596;17.648;2023-05-23T20:33:34;17.20;92.20
22173;DHT22;11252;50.596;17.648;2023-05-23T20:36:01;17.10;92.20
22173;DHT22;11252;50.596;17.648;2023-05-23T20:38:29;17.10;92.20
22173;DHT22;11252;50.596;17.648;2023-05-23T20:40:57;17.00;92.20
22173;DHT22;11252;50.596;17.648;2023-05-23T20:43:27;17.00;92.20
22173;DHT22;11252;50.596;17.648;2023-05-23T20:45:56;16.90;92.20
22173;DHT22;11252;50.596;17.648;2023-05-23T20:48:27;16.90;92.20
22173;DHT22;11252;50.596;17.648;2023-05-23T20:50:55;16.90;92.20
22173;DHT22;11252;50.596;17.648;2023-05-23T20:53:23;16.80;92.20
22173;DHT22;11252;50.596;17.648;2023-05-23T20:55:50;16.80;92.20
22173;DHT22;11252;50.596;17.648;2023-05-23T20:58:18;16.80;92.20
22173;DHT22;11252;50.596;17.648;2023-05-23T21:00:47;16.70;92.20
22173;DHT22;11252;50.596;17.648;2023-05-23T21:03:15;16.70;92.20
22173;DHT22;11252;50.596;17.648;2023-05-23T21:05:42;16.70;92.20
22173;DHT22;11252;50.596;17.648;2023-05-23T21:08:10;16.70;92.20
22173;DHT22;11252;50.596;17.648;2023-05-23T21:10:37;16.60;92.20
22173;DHT22;11252;50.596;17.648;2023-05-23T21:13:04;16.60;92.20
22173;DHT22;11252;50.596;17.648;2023-05-23T21:15:31;16.50;92.20
22173;DHT22;11252;50.596;17.648;2023-05-23T21:17:59;16.50;92.20
22173;DHT22;11252;50.596;17.648;2023-05-23T21:20:26;16.50;92.20
22173;DHT22;11252;50.596;17.648;2023-05-23T21:22:54;16.50;92.20
22173;DHT22;11252;50.596;17.648;2023-05-23T21:25:22;16.40;92.20
22173;DHT22;11252;50.596;17.648;2023-05-23T21:27:49;16.40;92.20
22173;DHT22;11252;50.596;17.648;2023-05-23T21:30:16;16.40;92.20
22173;DHT22;11252;50.596;17.648;2023-05-23T21:32:44;16.40;92.20
22173;DHT22;11252;50.596;17.648;2023-05-23T21:35:12;16.40;92.20
22173;DHT22;11252;50.596;17.648;2023-05-23T21:37:39;16.30;92.20
22173;DHT22;11252;50.596;17.648;2023-05-23T21:40:07;16.30;92.20
22173;DHT22;11252;50.596;17.648;2023-05-23T21:42:34;16.30;92.20
22173;DHT22;11252;50.596;17.648;2023-05-23T21:45:01;16.30;92.20
22173;DHT22;11252;50.596;17.648;2023-05-23T21:47:29;16.30;92.20
22173;DHT22;11252;50.596;17.648;2023-05-23T21:49:56;16.30;92.20
22173;DHT22;11252;50.596;17.648;2023-05-23T21:52:23;16.30;92.20
22173;DHT22;11252;50.596;17.648;2023-05-23T21:54:51;16.30;92.20
22173;DHT22;11252;50.596;17.648;2023-05-23T21:57:18;16.30;92.20
22173;DHT22;11252;50.596;17.648;2023-05-23T21:59:45;16.30;92.20
22173;DHT22;11252;50.596;17.648;2023-05-23T22:02:12;16.30;92.20
22173;DHT22;11252;50.596;17.648;2023-05-23T22:04:40;16.30;92.20
22173;DHT22;11252;50.596;17.648;2023-05-23T22:07:07;16.30;92.20
22173;DHT22;11252;50.596;17.648;2023-05-23T22:09:34;16.30;92.20
22173;DHT22;11252;50.596;17.648;2023-05-23T22:12:02;16.30;92.20
22173;DHT22;11252;50.596;17.648;2023-05-23T22:14:29;16.30;92.20
22173;DHT22;11252;50.596;17.648;2023-05-23T22:16:56;16.30;92.20
22173;DHT22;11252;50.596;17.648;2023-05-23T22:19:28;16.30;92.20
22173;DHT22;11252;50.596;17.648;2023-05-23T22:21:56;16.30;92.20
22173;DHT22;11252;50.596;17.648;2023-05-23T22:24:23;16.30;92.20
22173;DHT22;11252;50.596;17.648;2023-05-23T22:26:51;16.30;92.20
22173;DHT22;11252;50.596;17.648;2023-05-23T22:29:18;16.30;92.20
22173;DHT22;11252;50.596;17.648;2023-05-23T22:31:45;16.30;92.20
22173;DHT22;11252;50.596;17.648;2023-05-23T22:34:13;16.30;92.20
22173;DHT22;11252;50.596;17.648;2023-05-23T22:36:41;16.20;92.20
22173;DHT22;11252;50.596;17.648;2023-05-23T22:39:08;16.20;92.20
22173;DHT22;11252;50.596;17.648;2023-05-23T22:41:35;16.20;92.20
22173;DHT22;11252;50.596;17.648;2023-05-23T22:44:02;16.20;92.20
22173;DHT22;11252;50.596;17.648;2023-05-23T22:46:30;16.20;92.20
22173;DHT22;11252;50.596;17.648;2023-05-23T22:48:58;16.20;92.20
22173;DHT22;11252;50.596;17.648;2023-05-23T22:51:26;16.20;92.20
22173;DHT22;11252;50.596;17.648;2023-05-23T22:53:55;16.20;92.20
22173;DHT22;11252;50.596;17.648;2023-05-23T22:56:23;16.20;92.20
22173;DHT22;11252;50.596;17.648;2023-05-23T22:58:50;16.10;92.20
22173;DHT22;11252;50.596;17.648;2023-05-23T23:01:17;16.10;92.20
22173;DHT22;11252;50.596;17.648;2023-05-23T23:03:45;16.10;92.20
22173;DHT22;11252;50.596;17.648;2023-05-23T23:06:12;16.10;92.20
22173;DHT22;11252;50.596;17.648;2023-05-23T23:08:39;16.10;92.20
22173;DHT22;11252;50.596;17.648;2023-05-23T23:11:07;16.10;92.20
22173;DHT22;11252;50.596;17.648;2023-05-23T23:13:34;16.10;92.20
22173;DHT22;11252;50.596;17.648;2023-05-23T23:16:01;16.10;92.20
22173;DHT22;11252;50.596;17.648;2023-05-23T23:18:29;16.00;92.20
22173;DHT22;11252;50.596;17.648;2023-05-23T23:20:56;16.00;92.20
22173;DHT22;11252;50.596;17.648;2023-05-23T23:23:24;16.00;92.20
22173;DHT22;11252;50.596;17.648;2023-05-23T23:25:52;16.00;92.20
22173;DHT22;11252;50.596;17.648;2023-05-23T23:28:19;16.00;92.20
22173;DHT22;11252;50.596;17.648;2023-05-23T23:30:46;16.00;92.20
22173;DHT22;11252;50.596;17.648;2023-05-23T23:33:14;15.90;92.20
22173;DHT22;11252;50.596;17.648;2023-05-23T23:35:41;16.00;92.20
22173;DHT22;11252;50.596;17.648;2023-05-23T23:38:12;16.00;92.20
22173;DHT22;11252;50.596;17.648;2023-05-23T23:40:39;15.90;92.20
22173;DHT22;11252;50.596;17.648;2023-05-23T23:43:11;15.90;92.20
22173;DHT22;11252;50.596;17.648;2023-05-23T23:45:38;15.90;92.20
22173;DHT22;11252;50.596;17.648;2023-05-23T23:48:05;15.80;92.20
22173;DHT22;11252;50.596;17.648;2023-05-23T23:50:33;15.80;92.20
22173;DHT22;11252;50.596;17.648;2023-05-23T23:53:00;15.80;92.20
22173;DHT22;11252;50.596;17.648;2023-05-23T23:55:28;15.70;92.20
22173;DHT22;11252;50.596;17.648;2023-05-23T23:57:55;15.70;92.20
